sensor_id;sensor_type;location;lat;lon;timestamp;P1;durP1;ratioP1;P2;durP2;ratioP2
6306;SDS011;3186;54.062;9.962;2023-05-10T00:00:21;6.53;;;2.93;;
6306;SDS011;3186;54.062;9.962;2023-05-10T00:02:48;3.37;;;3.07;;
6306;SDS011;3186;54.062;9.962;2023-05-10T00:05:14;7.67;;;2.97;;
6306;SDS011;3186;54.062;9.962;2023-05-10T00:07:40;6.57;;;3.53;;
6306;SDS011;3186;54.062;9.962;2023-05-10T00:10:09;4.83;;;3.10;;
6306;SDS011;3186;54.062;9.962;2023-05-10T00:12:36;5.93;;;3.03;;
6306;SDS011;3186;54.062;9.962;2023-05-10T00:15:02;3.37;;;3.07;;
6306;SDS011;3186;54.062;9.962;2023-05-10T00:17:28;3.80;;;2.70;;
6306;SDS011;3186;54.062;9.962;2023-05-10T00:19:54;7.13;;;3.27;;
6306;SDS011;3186;54.062;9.962;2023-05-10T00:22:20;7.07;;;2.47;;
6306;SDS011;3186;54.062;9.962;2023-05-10T00:24:46;3.50;;;2.83;;
6306;SDS011;3186;54.062;9.962;2023-05-10T00:27:11;3.23;;;2.70;;
6306;SDS011;3186;54.062;9.962;2023-05-10T00:29:37;9.80;;;2.93;;
6306;SDS011;3186;54.062;9.962;2023-05-10T00:32:03;6.00;;;3.13;;
6306;SDS011;3186;54.062;9.962;2023-05-10T00:34:29;4.70;;;2.83;;
6306;SDS011;3186;54.062;9.962;2023-05-10T00:36:55;9.63;;;3.23;;
6306;SDS011;3186;54.062;9.962;2023-05-10T00:39:21;4.20;;;2.87;;
6306;SDS011;3186;54.062;9.962;2023-05-10T00:41:48;2.50;;;2.30;;
6306;SDS011;3186;54.062;9.962;2023-05-10T00:44:15;3.27;;;2.90;;
6306;SDS011;3186;54.062;9.962;2023-05-10T00:46:41;4.30;;;2.80;;
6306;SDS011;3186;54.062;9.962;2023-05-10T00:49:07;4.57;;;2.93;;
6306;SDS011;3186;54.062;9.962;2023-05-10T00:51:33;3.00;;;2.70;;
6306;SDS011;3186;54.062;9.962;2023-05-10T00:53:59;4.23;;;2.90;;
6306;SDS011;3186;54.062;9.962;2023-05-10T00:56:25;9.00;;;2.83;;
6306;SDS011;3186;54.062;9.962;2023-05-10T00:58:53;6.03;;;2.77;;
6306;SDS011;3186;54.062;9.962;2023-05-10T01:01:19;6.23;;;2.97;;
6306;SDS011;3186;54.062;9.962;2023-05-10T01:03:45;6.80;;;3.03;;
6306;SDS011;3186;54.062;9.962;2023-05-10T01:06:12;6.27;;;2.47;;
6306;SDS011;3186;54.062;9.962;2023-05-10T01:08:38;4.77;;;3.13;;
6306;SDS011;3186;54.062;9.962;2023-05-10T01:11:04;3.50;;;2.73;;
6306;SDS011;3186;54.062;9.962;2023-05-10T01:16:02;5.30;;;2.90;;
6306;SDS011;3186;54.062;9.962;2023-05-10T01:18:36;5.87;;;3.23;;
6306;SDS011;3186;54.062;9.962;2023-05-10T01:21:08;3.00;;;2.70;;
6306;SDS011;3186;54.062;9.962;2023-05-10T01:29:42;5.67;;;2.87;;
6306;SDS011;3186;54.062;9.962;2023-05-10T01:35:17;4.20;;;2.90;;
6306;SDS011;3186;54.062;9.962;2023-05-10T01:43:18;5.73;;;3.33;;
6306;SDS011;3186;54.062;9.962;2023-05-10T01:46:07;3.97;;;3.13;;
6306;SDS011;3186;54.062;9.962;2023-05-10T01:48:50;3.87;;;2.83;;
6306;SDS011;3186;54.062;9.962;2023-05-10T01:51:25;3.20;;;2.90;;
6306;SDS011;3186;54.062;9.962;2023-05-10T01:53:58;3.00;;;2.43;;
6306;SDS011;3186;54.062;9.962;2023-05-10T01:56:28;5.87;;;3.07;;
6306;SDS011;3186;54.062;9.962;2023-05-10T01:58:56;4.00;;;2.90;;
6306;SDS011;3186;54.062;9.962;2023-05-10T02:01:24;7.43;;;3.03;;
6306;SDS011;3186;54.062;9.962;2023-05-10T02:03:51;5.40;;;2.50;;
6306;SDS011;3186;54.062;9.962;2023-05-10T02:06:19;4.73;;;2.83;;
6306;SDS011;3186;54.062;9.962;2023-05-10T02:08:47;8.93;;;3.00;;
6306;SDS011;3186;54.062;9.962;2023-05-10T02:11:15;3.43;;;2.70;;
6306;SDS011;3186;54.062;9.962;2023-05-10T02:13:43;5.30;;;2.50;;
6306;SDS011;3186;54.062;9.962;2023-05-10T02:16:12;6.23;;;3.00;;
6306;SDS011;3186;54.062;9.962;2023-05-10T02:18:39;6.87;;;3.37;;
6306;SDS011;3186;54.062;9.962;2023-05-10T02:21:06;5.83;;;3.20;;
6306;SDS011;3186;54.062;9.962;2023-05-10T02:23:38;5.60;;;2.63;;
6306;SDS011;3186;54.062;9.962;2023-05-10T02:26:04;4.43;;;2.90;;
6306;SDS011;3186;54.062;9.962;2023-05-10T02:28:31;5.10;;;3.00;;
6306;SDS011;3186;54.062;9.962;2023-05-10T02:30:58;5.73;;;3.43;;
6306;SDS011;3186;54.062;9.962;2023-05-10T02:33:24;7.60;;;3.03;;
6306;SDS011;3186;54.062;9.962;2023-05-10T02:35:51;6.87;;;3.13;;
6306;SDS011;3186;54.062;9.962;2023-05-10T02:38:18;4.87;;;2.93;;
6306;SDS011;3186;54.062;9.962;2023-05-10T02:40:46;4.97;;;3.13;;
6306;SDS011;3186;54.062;9.962;2023-05-10T02:43:14;8.00;;;2.83;;
6306;SDS011;3186;54.062;9.962;2023-05-10T02:45:42;4.03;;;3.00;;
6306;SDS011;3186;54.062;9.962;2023-05-10T02:48:11;6.37;;;3.10;;
6306;SDS011;3186;54.062;9.962;2023-05-10T02:50:37;5.60;;;2.90;;
6306;SDS011;3186;54.062;9.962;2023-05-10T02:53:09;4.77;;;2.90;;
6306;SDS011;3186;54.062;9.962;2023-05-10T02:55:41;4.30;;;2.80;;
6306;SDS011;3186;54.062;9.962;2023-05-10T02:58:10;3.67;;;3.30;;
6306;SDS011;3186;54.062;9.962;2023-05-10T03:00:36;7.40;;;3.57;;
6306;SDS011;3186;54.062;9.962;2023-05-10T03:03:02;4.93;;;3.33;;
6306;SDS011;3186;54.062;9.962;2023-05-10T03:05:28;5.30;;;3.57;;
6306;SDS011;3186;54.062;9.962;2023-05-10T03:07:55;4.90;;;2.97;;
6306;SDS011;3186;54.062;9.962;2023-05-10T03:10:24;4.87;;;2.90;;
6306;SDS011;3186;54.062;9.962;2023-05-10T03:12:57;7.07;;;3.27;;
6306;SDS011;3186;54.062;9.962;2023-05-10T03:21:26;4.57;;;3.07;;
6306;SDS011;3186;54.062;9.962;2023-05-10T03:24:07;5.47;;;3.00;;
6306;SDS011;3186;54.062;9.962;2023-05-10T03:26:37;7.93;;;2.80;;
6306;SDS011;3186;54.062;9.962;2023-05-10T03:29:09;5.53;;;3.30;;
6306;SDS011;3186;54.062;9.962;2023-05-10T03:31:37;4.53;;;3.00;;
6306;SDS011;3186;54.062;9.962;2023-05-10T03:34:04;3.73;;;2.73;;
6306;SDS011;3186;54.062;9.962;2023-05-10T03:36:30;7.23;;;3.33;;
6306;SDS011;3186;54.062;9.962;2023-05-10T03:38:56;5.30;;;3.10;;
6306;SDS011;3186;54.062;9.962;2023-05-10T03:41:23;4.00;;;2.53;;
6306;SDS011;3186;54.062;9.962;2023-05-10T03:43:50;9.03;;;3.17;;
6306;SDS011;3186;54.062;9.962;2023-05-10T03:46:16;7.80;;;2.90;;
6306;SDS011;3186;54.062;9.962;2023-05-10T03:48:44;4.47;;;3.20;;
6306;SDS011;3186;54.062;9.962;2023-05-10T03:51:10;4.83;;;3.10;;
6306;SDS011;3186;54.062;9.962;2023-05-10T03:53:37;5.77;;;3.37;;
6306;SDS011;3186;54.062;9.962;2023-05-10T03:56:02;3.03;;;2.73;;
6306;SDS011;3186;54.062;9.962;2023-05-10T03:58:28;4.57;;;3.50;;
6306;SDS011;3186;54.062;9.962;2023-05-10T04:00:54;4.03;;;3.20;;
6306;SDS011;3186;54.062;9.962;2023-05-10T04:03:21;5.87;;;3.40;;
6306;SDS011;3186;54.062;9.962;2023-05-10T04:05:47;3.40;;;2.83;;
6306;SDS011;3186;54.062;9.962;2023-05-10T04:08:12;4.53;;;3.33;;
6306;SDS011;3186;54.062;9.962;2023-05-10T04:10:40;4.17;;;3.13;;
6306;SDS011;3186;54.062;9.962;2023-05-10T04:13:06;4.97;;;3.43;;
6306;SDS011;3186;54.062;9.962;2023-05-10T04:15:31;3.50;;;3.20;;
6306;SDS011;3186;54.062;9.962;2023-05-10T04:17:57;3.73;;;3.23;;
6306;SDS011;3186;54.062;9.962;2023-05-10T04:20:23;4.33;;;3.43;;
6306;SDS011;3186;54.062;9.962;2023-05-10T04:22:49;5.90;;;3.60;;
6306;SDS011;3186;54.062;9.962;2023-05-10T04:25:15;6.47;;;3.40;;
6306;SDS011;3186;54.062;9.962;2023-05-10T04:27:40;6.37;;;3.37;;
6306;SDS011;3186;54.062;9.962;2023-05-10T04:30:07;6.17;;;3.60;;
6306;SDS011;3186;54.062;9.962;2023-05-10T04:32:33;4.17;;;3.47;;
6306;SDS011;3186;54.062;9.962;2023-05-10T04:34:59;4.70;;;3.43;;
6306;SDS011;3186;54.062;9.962;2023-05-10T04:37:24;4.60;;;3.33;;
6306;SDS011;3186;54.062;9.962;2023-05-10T04:39:50;5.33;;;3.17;;
6306;SDS011;3186;54.062;9.962;2023-05-10T04:42:16;4.27;;;3.33;;
6306;SDS011;3186;54.062;9.962;2023-05-10T04:44:42;5.97;;;3.57;;
6306;SDS011;3186;54.062;9.962;2023-05-10T04:47:08;10.00;;;3.97;;
6306;SDS011;3186;54.062;9.962;2023-05-10T04:49:34;3.30;;;3.00;;
6306;SDS011;3186;54.062;9.962;2023-05-10T04:52:00;6.30;;;3.20;;
6306;SDS011;3186;54.062;9.962;2023-05-10T04:54:26;5.10;;;3.00;;
6306;SDS011;3186;54.062;9.962;2023-05-10T04:56:51;4.63;;;3.47;;
6306;SDS011;3186;54.062;9.962;2023-05-10T04:59:17;5.27;;;3.50;;
6306;SDS011;3186;54.062;9.962;2023-05-10T05:01:43;4.40;;;3.47;;
6306;SDS011;3186;54.062;9.962;2023-05-10T05:04:09;4.00;;;2.87;;
6306;SDS011;3186;54.062;9.962;2023-05-10T05:06:34;6.47;;;3.60;;
6306;SDS011;3186;54.062;9.962;2023-05-10T05:09:00;4.30;;;3.50;;
6306;SDS011;3186;54.062;9.962;2023-05-10T05:11:26;4.00;;;3.10;;
6306;SDS011;3186;54.062;9.962;2023-05-10T05:13:52;3.30;;;3.00;;
6306;SDS011;3186;54.062;9.962;2023-05-10T05:16:18;4.50;;;2.80;;
6306;SDS011;3186;54.062;9.962;2023-05-10T05:18:44;4.97;;;3.30;;
6306;SDS011;3186;54.062;9.962;2023-05-10T05:21:16;3.93;;;3.53;;
6306;SDS011;3186;54.062;9.962;2023-05-10T05:23:42;4.00;;;3.53;;
6306;SDS011;3186;54.062;9.962;2023-05-10T05:26:09;4.63;;;3.60;;
6306;SDS011;3186;54.062;9.962;2023-05-10T05:28:35;6.20;;;3.90;;
6306;SDS011;3186;54.062;9.962;2023-05-10T05:31:05;5.60;;;3.37;;
6306;SDS011;3186;54.062;9.962;2023-05-10T05:33:32;4.73;;;3.63;;
6306;SDS011;3186;54.062;9.962;2023-05-10T05:36:02;4.77;;;3.57;;
6306;SDS011;3186;54.062;9.962;2023-05-10T05:38:29;4.17;;;3.30;;
6306;SDS011;3186;54.062;9.962;2023-05-10T05:40:55;5.77;;;3.60;;
6306;SDS011;3186;54.062;9.962;2023-05-10T05:43:21;4.23;;;3.47;;
6306;SDS011;3186;54.062;9.962;2023-05-10T05:45:47;3.37;;;2.97;;
6306;SDS011;3186;54.062;9.962;2023-05-10T05:48:13;6.50;;;3.67;;
6306;SDS011;3186;54.062;9.962;2023-05-10T05:50:39;4.80;;;3.30;;
6306;SDS011;3186;54.062;9.962;2023-05-10T05:53:04;10.17;;;3.57;;
6306;SDS011;3186;54.062;9.962;2023-05-10T05:55:30;4.70;;;3.30;;
6306;SDS011;3186;54.062;9.962;2023-05-10T05:57:57;3.73;;;3.27;;
6306;SDS011;3186;54.062;9.962;2023-05-10T06:00:23;3.77;;;3.40;;
6306;SDS011;3186;54.062;9.962;2023-05-10T06:02:49;8.77;;;3.67;;
6306;SDS011;3186;54.062;9.962;2023-05-10T06:05:15;10.73;;;4.13;;
6306;SDS011;3186;54.062;9.962;2023-05-10T06:07:41;5.37;;;3.80;;
6306;SDS011;3186;54.062;9.962;2023-05-10T06:10:09;4.90;;;3.87;;
6306;SDS011;3186;54.062;9.962;2023-05-10T06:12:35;5.03;;;3.30;;
6306;SDS011;3186;54.062;9.962;2023-05-10T06:15:01;3.67;;;3.33;;
6306;SDS011;3186;54.062;9.962;2023-05-10T06:17:28;7.83;;;3.93;;
6306;SDS011;3186;54.062;9.962;2023-05-10T06:19:53;7.47;;;3.60;;
6306;SDS011;3186;54.062;9.962;2023-05-10T06:22:20;4.00;;;3.40;;
6306;SDS011;3186;54.062;9.962;2023-05-10T06:24:47;4.93;;;3.80;;
6306;SDS011;3186;54.062;9.962;2023-05-10T06:27:14;9.10;;;3.90;;
6306;SDS011;3186;54.062;9.962;2023-05-10T06:29:40;9.63;;;4.13;;
6306;SDS011;3186;54.062;9.962;2023-05-10T06:32:05;5.67;;;4.53;;
6306;SDS011;3186;54.062;9.962;2023-05-10T06:34:31;7.80;;;4.03;;
6306;SDS011;3186;54.062;9.962;2023-05-10T06:36:57;4.23;;;3.83;;
6306;SDS011;3186;54.062;9.962;2023-05-10T06:39:23;6.77;;;3.83;;
6306;SDS011;3186;54.062;9.962;2023-05-10T06:41:49;6.50;;;3.40;;
6306;SDS011;3186;54.062;9.962;2023-05-10T06:44:14;5.57;;;4.17;;
6306;SDS011;3186;54.062;9.962;2023-05-10T06:46:40;4.70;;;3.50;;
6306;SDS011;3186;54.062;9.962;2023-05-10T06:49:06;5.60;;;4.00;;
6306;SDS011;3186;54.062;9.962;2023-05-10T06:51:32;5.60;;;3.73;;
6306;SDS011;3186;54.062;9.962;2023-05-10T06:53:58;6.07;;;4.20;;
6306;SDS011;3186;54.062;9.962;2023-05-10T06:56:25;7.33;;;3.57;;
6306;SDS011;3186;54.062;9.962;2023-05-10T06:58:51;4.77;;;3.53;;
6306;SDS011;3186;54.062;9.962;2023-05-10T07:01:16;5.77;;;4.00;;
6306;SDS011;3186;54.062;9.962;2023-05-10T07:03:42;4.87;;;3.37;;
6306;SDS011;3186;54.062;9.962;2023-05-10T07:06:08;6.17;;;4.10;;
6306;SDS011;3186;54.062;9.962;2023-05-10T07:08:34;9.10;;;3.80;;
6306;SDS011;3186;54.062;9.962;2023-05-10T07:11:00;5.20;;;3.83;;
6306;SDS011;3186;54.062;9.962;2023-05-10T07:13:28;6.10;;;3.73;;
6306;SDS011;3186;54.062;9.962;2023-05-10T07:15:55;4.03;;;3.63;;
6306;SDS011;3186;54.062;9.962;2023-05-10T07:18:21;7.20;;;4.13;;
6306;SDS011;3186;54.062;9.962;2023-05-10T07:20:47;5.07;;;3.40;;
6306;SDS011;3186;54.062;9.962;2023-05-10T07:23:13;4.93;;;4.00;;
6306;SDS011;3186;54.062;9.962;2023-05-10T07:25:38;8.07;;;4.60;;
6306;SDS011;3186;54.062;9.962;2023-05-10T07:28:04;7.67;;;3.87;;
6306;SDS011;3186;54.062;9.962;2023-05-10T07:30:30;5.37;;;3.87;;
6306;SDS011;3186;54.062;9.962;2023-05-10T07:32:56;5.70;;;3.63;;
6306;SDS011;3186;54.062;9.962;2023-05-10T07:35:22;6.20;;;3.63;;
6306;SDS011;3186;54.062;9.962;2023-05-10T07:37:47;5.07;;;4.40;;
6306;SDS011;3186;54.062;9.962;2023-05-10T07:40:13;4.37;;;3.67;;
6306;SDS011;3186;54.062;9.962;2023-05-10T07:42:39;5.63;;;3.53;;
6306;SDS011;3186;54.062;9.962;2023-05-10T07:45:05;6.00;;;4.23;;
6306;SDS011;3186;54.062;9.962;2023-05-10T07:47:31;7.80;;;3.90;;
6306;SDS011;3186;54.062;9.962;2023-05-10T07:49:57;5.00;;;3.63;;
6306;SDS011;3186;54.062;9.962;2023-05-10T07:52:23;7.47;;;4.30;;
6306;SDS011;3186;54.062;9.962;2023-05-10T07:54:49;4.43;;;4.03;;
6306;SDS011;3186;54.062;9.962;2023-05-10T07:57:15;4.17;;;3.73;;
6306;SDS011;3186;54.062;9.962;2023-05-10T07:59:42;9.73;;;4.23;;
6306;SDS011;3186;54.062;9.962;2023-05-10T08:02:09;4.63;;;3.77;;
6306;SDS011;3186;54.062;9.962;2023-05-10T08:04:35;5.53;;;4.20;;
6306;SDS011;3186;54.062;9.962;2023-05-10T08:07:01;4.00;;;3.57;;
6306;SDS011;3186;54.062;9.962;2023-05-10T08:09:27;5.37;;;3.83;;
6306;SDS011;3186;54.062;9.962;2023-05-10T08:11:52;6.37;;;4.33;;
6306;SDS011;3186;54.062;9.962;2023-05-10T08:14:18;4.33;;;3.83;;
6306;SDS011;3186;54.062;9.962;2023-05-10T08:16:44;5.50;;;4.00;;
6306;SDS011;3186;54.062;9.962;2023-05-10T08:19:10;4.63;;;3.23;;
6306;SDS011;3186;54.062;9.962;2023-05-10T08:21:36;4.37;;;3.23;;
6306;SDS011;3186;54.062;9.962;2023-05-10T08:24:02;7.33;;;4.17;;
6306;SDS011;3186;54.062;9.962;2023-05-10T08:26:28;4.77;;;3.97;;
6306;SDS011;3186;54.062;9.962;2023-05-10T08:28:54;6.80;;;3.70;;
6306;SDS011;3186;54.062;9.962;2023-05-10T08:31:20;4.60;;;4.10;;
6306;SDS011;3186;54.062;9.962;2023-05-10T08:33:46;4.77;;;3.90;;
6306;SDS011;3186;54.062;9.962;2023-05-10T08:36:12;7.57;;;4.40;;
6306;SDS011;3186;54.062;9.962;2023-05-10T08:38:40;4.03;;;3.63;;
6306;SDS011;3186;54.062;9.962;2023-05-10T08:41:06;3.80;;;3.50;;
6306;SDS011;3186;54.062;9.962;2023-05-10T08:43:32;5.17;;;3.77;;
6306;SDS011;3186;54.062;9.962;2023-05-10T08:45:59;5.30;;;4.17;;
6306;SDS011;3186;54.062;9.962;2023-05-10T08:48:28;6.07;;;3.20;;
6306;SDS011;3186;54.062;9.962;2023-05-10T08:50:55;9.10;;;3.57;;
6306;SDS011;3186;54.062;9.962;2023-05-10T08:53:24;6.50;;;3.97;;
6306;SDS011;3186;54.062;9.962;2023-05-10T08:55:52;10.63;;;4.03;;
6306;SDS011;3186;54.062;9.962;2023-05-10T08:58:18;4.53;;;3.80;;
6306;SDS011;3186;54.062;9.962;2023-05-10T09:00:45;5.70;;;3.60;;
6306;SDS011;3186;54.062;9.962;2023-05-10T09:03:12;5.37;;;3.73;;
6306;SDS011;3186;54.062;9.962;2023-05-10T09:05:38;4.40;;;4.00;;
6306;SDS011;3186;54.062;9.962;2023-05-10T09:08:04;3.93;;;3.60;;
6306;SDS011;3186;54.062;9.962;2023-05-10T09:10:31;4.63;;;3.77;;
6306;SDS011;3186;54.062;9.962;2023-05-10T09:12:57;7.60;;;3.97;;
6306;SDS011;3186;54.062;9.962;2023-05-10T09:15:24;5.20;;;4.20;;
6306;SDS011;3186;54.062;9.962;2023-05-10T09:17:50;8.57;;;3.43;;
6306;SDS011;3186;54.062;9.962;2023-05-10T09:20:15;4.40;;;3.80;;
6306;SDS011;3186;54.062;9.962;2023-05-10T09:22:42;7.90;;;3.70;;
6306;SDS011;3186;54.062;9.962;2023-05-10T09:27:41;3.80;;;3.33;;
6306;SDS011;3186;54.062;9.962;2023-05-10T09:30:10;4.70;;;3.97;;
6306;SDS011;3186;54.062;9.962;2023-05-10T09:32:48;6.00;;;3.53;;
6306;SDS011;3186;54.062;9.962;2023-05-10T09:35:16;6.10;;;3.73;;
6306;SDS011;3186;54.062;9.962;2023-05-10T09:37:44;5.87;;;4.27;;
6306;SDS011;3186;54.062;9.962;2023-05-10T09:40:13;6.17;;;3.93;;
6306;SDS011;3186;54.062;9.962;2023-05-10T09:43:02;7.17;;;4.07;;
6306;SDS011;3186;54.062;9.962;2023-05-10T09:45:28;4.80;;;3.50;;
6306;SDS011;3186;54.062;9.962;2023-05-10T09:47:56;6.53;;;3.87;;
6306;SDS011;3186;54.062;9.962;2023-05-10T09:50:23;4.73;;;4.30;;
6306;SDS011;3186;54.062;9.962;2023-05-10T09:53:02;5.77;;;4.13;;
6306;SDS011;3186;54.062;9.962;2023-05-10T09:55:39;6.83;;;4.00;;
6306;SDS011;3186;54.062;9.962;2023-05-10T09:58:06;8.83;;;4.07;;
6306;SDS011;3186;54.062;9.962;2023-05-10T10:00:39;8.67;;;4.47;;
6306;SDS011;3186;54.062;9.962;2023-05-10T10:03:05;5.57;;;4.20;;
6306;SDS011;3186;54.062;9.962;2023-05-10T10:05:36;7.10;;;4.03;;
6306;SDS011;3186;54.062;9.962;2023-05-10T10:08:05;7.17;;;3.87;;
6306;SDS011;3186;54.062;9.962;2023-05-10T10:10:32;4.97;;;4.30;;
6306;SDS011;3186;54.062;9.962;2023-05-10T10:12:58;5.77;;;4.60;;
6306;SDS011;3186;54.062;9.962;2023-05-10T10:15:25;7.07;;;4.23;;
6306;SDS011;3186;54.062;9.962;2023-05-10T10:17:51;65.43;;;8.27;;
6306;SDS011;3186;54.062;9.962;2023-05-10T10:20:19;7.57;;;4.50;;
6306;SDS011;3186;54.062;9.962;2023-05-10T10:22:46;4.20;;;3.80;;
6306;SDS011;3186;54.062;9.962;2023-05-10T10:25:13;5.97;;;4.47;;
6306;SDS011;3186;54.062;9.962;2023-05-10T10:36:09;4.63;;;4.23;;
6306;SDS011;3186;54.062;9.962;2023-05-10T10:44:36;5.07;;;3.67;;
6306;SDS011;3186;54.062;9.962;2023-05-10T10:47:06;5.33;;;4.47;;
6306;SDS011;3186;54.062;9.962;2023-05-10T10:49:38;5.40;;;4.07;;
6306;SDS011;3186;54.062;9.962;2023-05-10T10:57:25;7.67;;;4.60;;
6306;SDS011;3186;54.062;9.962;2023-05-10T10:59:53;5.37;;;4.07;;
6306;SDS011;3186;54.062;9.962;2023-05-10T11:02:49;6.90;;;3.97;;
6306;SDS011;3186;54.062;9.962;2023-05-10T11:08:14;9.67;;;3.93;;
6306;SDS011;3186;54.062;9.962;2023-05-10T11:13:28;6.53;;;4.53;;
6306;SDS011;3186;54.062;9.962;2023-05-10T11:15:57;5.43;;;4.13;;
6306;SDS011;3186;54.062;9.962;2023-05-10T11:18:25;3.97;;;3.67;;
6306;SDS011;3186;54.062;9.962;2023-05-10T11:20:55;6.23;;;4.40;;
6306;SDS011;3186;54.062;9.962;2023-05-10T11:23:32;4.87;;;4.33;;
6306;SDS011;3186;54.062;9.962;2023-05-10T11:26:12;4.40;;;4.00;;
6306;SDS011;3186;54.062;9.962;2023-05-10T11:28:43;7.43;;;5.80;;
6306;SDS011;3186;54.062;9.962;2023-05-10T11:31:10;7.53;;;4.40;;
6306;SDS011;3186;54.062;9.962;2023-05-10T11:33:42;4.87;;;3.73;;
6306;SDS011;3186;54.062;9.962;2023-05-10T11:36:15;6.13;;;5.10;;
6306;SDS011;3186;54.062;9.962;2023-05-10T11:38:51;5.23;;;4.70;;
6306;SDS011;3186;54.062;9.962;2023-05-10T11:41:17;6.50;;;4.70;;
6306;SDS011;3186;54.062;9.962;2023-05-10T11:43:47;4.33;;;3.87;;
6306;SDS011;3186;54.062;9.962;2023-05-10T11:46:15;9.70;;;5.20;;
6306;SDS011;3186;54.062;9.962;2023-05-10T11:48:42;8.13;;;5.87;;
6306;SDS011;3186;54.062;9.962;2023-05-10T11:51:08;5.30;;;4.70;;
6306;SDS011;3186;54.062;9.962;2023-05-10T11:53:35;5.30;;;4.40;;
6306;SDS011;3186;54.062;9.962;2023-05-10T11:56:10;6.70;;;4.63;;
6306;SDS011;3186;54.062;9.962;2023-05-10T11:58:37;5.70;;;5.10;;
6306;SDS011;3186;54.062;9.962;2023-05-10T12:01:05;6.57;;;4.60;;
6306;SDS011;3186;54.062;9.962;2023-05-10T12:03:32;6.37;;;5.50;;
6306;SDS011;3186;54.062;9.962;2023-05-10T12:05:59;5.57;;;4.93;;
6306;SDS011;3186;54.062;9.962;2023-05-10T12:08:27;8.47;;;4.70;;
6306;SDS011;3186;54.062;9.962;2023-05-10T12:11:04;5.23;;;4.63;;
6306;SDS011;3186;54.062;9.962;2023-05-10T12:13:31;6.53;;;5.27;;
6306;SDS011;3186;54.062;9.962;2023-05-10T12:15:57;8.03;;;5.37;;
6306;SDS011;3186;54.062;9.962;2023-05-10T12:18:24;5.47;;;4.90;;
6306;SDS011;3186;54.062;9.962;2023-05-10T12:20:53;4.77;;;4.03;;
6306;SDS011;3186;54.062;9.962;2023-05-10T12:23:20;8.17;;;5.87;;
6306;SDS011;3186;54.062;9.962;2023-05-10T12:25:46;9.63;;;6.30;;
6306;SDS011;3186;54.062;9.962;2023-05-10T12:28:12;7.43;;;6.10;;
6306;SDS011;3186;54.062;9.962;2023-05-10T12:30:38;7.67;;;5.60;;
6306;SDS011;3186;54.062;9.962;2023-05-10T12:33:08;5.80;;;5.20;;
6306;SDS011;3186;54.062;9.962;2023-05-10T12:35:46;8.00;;;5.40;;
6306;SDS011;3186;54.062;9.962;2023-05-10T12:38:24;10.60;;;5.63;;
6306;SDS011;3186;54.062;9.962;2023-05-10T12:40:51;8.13;;;5.27;;
6306;SDS011;3186;54.062;9.962;2023-05-10T12:43:17;7.30;;;5.13;;
6306;SDS011;3186;54.062;9.962;2023-05-10T12:45:43;5.53;;;4.93;;
6306;SDS011;3186;54.062;9.962;2023-05-10T12:48:13;10.57;;;6.40;;
6306;SDS011;3186;54.062;9.962;2023-05-10T12:50:39;11.47;;;6.53;;
6306;SDS011;3186;54.062;9.962;2023-05-10T12:53:04;9.20;;;6.70;;
6306;SDS011;3186;54.062;9.962;2023-05-10T12:55:30;6.97;;;6.00;;
6306;SDS011;3186;54.062;9.962;2023-05-10T12:57:56;7.23;;;6.53;;
6306;SDS011;3186;54.062;9.962;2023-05-10T13:00:22;10.57;;;7.27;;
6306;SDS011;3186;54.062;9.962;2023-05-10T13:02:48;10.47;;;6.20;;
6306;SDS011;3186;54.062;9.962;2023-05-10T13:05:14;8.83;;;7.53;;
6306;SDS011;3186;54.062;9.962;2023-05-10T13:07:40;8.63;;;6.93;;
6306;SDS011;3186;54.062;9.962;2023-05-10T13:10:06;5.80;;;5.20;;
6306;SDS011;3186;54.062;9.962;2023-05-10T13:12:32;7.17;;;6.23;;
6306;SDS011;3186;54.062;9.962;2023-05-10T13:14:58;9.27;;;7.13;;
6306;SDS011;3186;54.062;9.962;2023-05-10T13:17:25;10.87;;;6.00;;
6306;SDS011;3186;54.062;9.962;2023-05-10T13:19:51;10.20;;;7.07;;
6306;SDS011;3186;54.062;9.962;2023-05-10T13:22:16;8.40;;;7.43;;
6306;SDS011;3186;54.062;9.962;2023-05-10T13:24:42;8.40;;;5.87;;
6306;SDS011;3186;54.062;9.962;2023-05-10T13:27:08;6.50;;;5.80;;
6306;SDS011;3186;54.062;9.962;2023-05-10T13:29:34;6.10;;;5.43;;
6306;SDS011;3186;54.062;9.962;2023-05-10T13:32:00;7.70;;;6.90;;
6306;SDS011;3186;54.062;9.962;2023-05-10T13:34:26;7.67;;;6.23;;
6306;SDS011;3186;54.062;9.962;2023-05-10T13:36:52;8.77;;;6.63;;
6306;SDS011;3186;54.062;9.962;2023-05-10T13:39:19;7.93;;;6.20;;
6306;SDS011;3186;54.062;9.962;2023-05-10T13:41:45;8.70;;;6.70;;
6306;SDS011;3186;54.062;9.962;2023-05-10T13:44:12;12.00;;;8.40;;
6306;SDS011;3186;54.062;9.962;2023-05-10T13:46:39;8.57;;;7.50;;
6306;SDS011;3186;54.062;9.962;2023-05-10T13:49:08;11.13;;;8.23;;
6306;SDS011;3186;54.062;9.962;2023-05-10T13:51:34;7.10;;;6.40;;
6306;SDS011;3186;54.062;9.962;2023-05-10T13:54:01;6.47;;;5.87;;
6306;SDS011;3186;54.062;9.962;2023-05-10T13:56:27;6.17;;;5.57;;
6306;SDS011;3186;54.062;9.962;2023-05-10T13:58:53;7.87;;;6.10;;
6306;SDS011;3186;54.062;9.962;2023-05-10T14:01:19;6.27;;;5.30;;
6306;SDS011;3186;54.062;9.962;2023-05-10T14:03:45;6.60;;;5.20;;
6306;SDS011;3186;54.062;9.962;2023-05-10T14:06:12;6.10;;;5.47;;
6306;SDS011;3186;54.062;9.962;2023-05-10T14:08:38;5.50;;;4.80;;
6306;SDS011;3186;54.062;9.962;2023-05-10T14:11:04;8.67;;;7.23;;
6306;SDS011;3186;54.062;9.962;2023-05-10T14:13:30;7.20;;;5.70;;
6306;SDS011;3186;54.062;9.962;2023-05-10T14:15:56;6.33;;;4.87;;
6306;SDS011;3186;54.062;9.962;2023-05-10T14:18:22;8.10;;;5.40;;
6306;SDS011;3186;54.062;9.962;2023-05-10T14:20:48;6.10;;;5.50;;
6306;SDS011;3186;54.062;9.962;2023-05-10T14:23:14;5.20;;;4.70;;
6306;SDS011;3186;54.062;9.962;2023-05-10T14:25:40;7.97;;;4.90;;
6306;SDS011;3186;54.062;9.962;2023-05-10T14:28:06;5.47;;;4.50;;
6306;SDS011;3186;54.062;9.962;2023-05-10T14:30:32;7.40;;;6.57;;
6306;SDS011;3186;54.062;9.962;2023-05-10T14:32:59;6.43;;;4.90;;
6306;SDS011;3186;54.062;9.962;2023-05-10T14:35:26;4.33;;;3.73;;
6306;SDS011;3186;54.062;9.962;2023-05-10T14:37:53;4.53;;;4.13;;
6306;SDS011;3186;54.062;9.962;2023-05-10T14:40:18;4.67;;;3.67;;
6306;SDS011;3186;54.062;9.962;2023-05-10T14:42:44;5.13;;;4.07;;
6306;SDS011;3186;54.062;9.962;2023-05-10T14:45:10;4.50;;;4.10;;
6306;SDS011;3186;54.062;9.962;2023-05-10T14:47:37;7.20;;;5.53;;
6306;SDS011;3186;54.062;9.962;2023-05-10T14:50:02;5.70;;;4.30;;
6306;SDS011;3186;54.062;9.962;2023-05-10T14:52:29;6.60;;;3.90;;
6306;SDS011;3186;54.062;9.962;2023-05-10T14:54:54;3.93;;;3.53;;
6306;SDS011;3186;54.062;9.962;2023-05-10T14:57:20;6.20;;;4.23;;
6306;SDS011;3186;54.062;9.962;2023-05-10T14:59:46;5.07;;;4.50;;
6306;SDS011;3186;54.062;9.962;2023-05-10T15:02:13;6.07;;;4.27;;
6306;SDS011;3186;54.062;9.962;2023-05-10T15:04:38;4.50;;;4.10;;
6306;SDS011;3186;54.062;9.962;2023-05-10T15:07:04;6.67;;;3.67;;
6306;SDS011;3186;54.062;9.962;2023-05-10T15:09:30;5.30;;;4.00;;
6306;SDS011;3186;54.062;9.962;2023-05-10T15:11:56;4.70;;;4.20;;
6306;SDS011;3186;54.062;9.962;2023-05-10T15:14:22;5.17;;;4.67;;
6306;SDS011;3186;54.062;9.962;2023-05-10T15:16:48;3.80;;;3.40;;
6306;SDS011;3186;54.062;9.962;2023-05-10T15:19:14;4.30;;;3.70;;
6306;SDS011;3186;54.062;9.962;2023-05-10T15:21:40;6.13;;;4.20;;
6306;SDS011;3186;54.062;9.962;2023-05-10T15:24:08;5.17;;;4.00;;
6306;SDS011;3186;54.062;9.962;2023-05-10T15:26:34;5.03;;;3.40;;
6306;SDS011;3186;54.062;9.962;2023-05-10T15:29:00;4.30;;;3.83;;
6306;SDS011;3186;54.062;9.962;2023-05-10T15:31:26;3.83;;;3.53;;
6306;SDS011;3186;54.062;9.962;2023-05-10T15:33:55;3.63;;;3.33;;
6306;SDS011;3186;54.062;9.962;2023-05-10T15:36:23;6.60;;;3.40;;
6306;SDS011;3186;54.062;9.962;2023-05-10T15:38:49;3.37;;;2.80;;
6306;SDS011;3186;54.062;9.962;2023-05-10T15:41:15;3.17;;;2.87;;
6306;SDS011;3186;54.062;9.962;2023-05-10T15:43:41;3.70;;;3.27;;
6306;SDS011;3186;54.062;9.962;2023-05-10T15:46:07;3.50;;;3.03;;
6306;SDS011;3186;54.062;9.962;2023-05-10T15:48:32;3.87;;;3.40;;
6306;SDS011;3186;54.062;9.962;2023-05-10T15:50:58;5.80;;;4.70;;
6306;SDS011;3186;54.062;9.962;2023-05-10T15:53:24;9.00;;;5.20;;
6306;SDS011;3186;54.062;9.962;2023-05-10T15:55:50;6.37;;;4.03;;
6306;SDS011;3186;54.062;9.962;2023-05-10T15:58:16;3.73;;;3.30;;
6306;SDS011;3186;54.062;9.962;2023-05-10T16:00:41;4.27;;;3.87;;
6306;SDS011;3186;54.062;9.962;2023-05-10T16:03:07;5.17;;;3.43;;
6306;SDS011;3186;54.062;9.962;2023-05-10T16:05:33;4.27;;;3.47;;